createdAt,value
2023-02-11T00:01:38.075Z,102828.97
2023-02-11T00:04:07.934Z,102835.09
2023-02-11T00:06:37.455Z,102836.06
2023-02-11T00:09:06.877Z,102838.81
2023-02-11T00:11:35.612Z,102836.38
2023-02-11T00:14:08.744Z,102840.72
2023-02-11T00:16:37.393Z,102839.16
2023-02-11T00:19:06.473Z,102839.25
2023-02-11T00:21:35.456Z,102831.56
2023-02-11T00:24:04.218Z,102834.25
2023-02-11T00:26:35.731Z,102840.34
2023-02-11T00:29:06.164Z,102841.19
2023-02-11T00:31:35.855Z,102842.06
2023-02-11T00:34:06.955Z,102837.63
2023-02-11T00:36:35.147Z,102828.91
2023-02-11T00:39:03.969Z,102837.47
2023-02-11T00:41:32.576Z,102832.28
2023-02-11T00:44:02.401Z,102832.25
2023-02-11T00:46:32.300Z,102837.31
2023-02-11T00:49:00.925Z,102828.69
2023-02-11T00:51:29.991Z,102826.09
2023-02-11T00:53:58.199Z,102826.09
2023-02-11T00:56:27.407Z,102816.63
2023-02-11T00:58:57.853Z,102821.75
2023-02-11T01:01:26.503Z,102826.19
2023-02-11T01:03:56.146Z,102833.03
2023-02-11T01:06:25.333Z,102825.38
2023-02-11T01:08:53.837Z,102824.53
2023-02-11T01:11:22.977Z,102813.41
2023-02-11T01:13:52.045Z,102817.75
2023-02-11T01:16:21.695Z,102808.38
2023-02-11T01:18:50.491Z,102811.91
2023-02-11T01:21:20.693Z,102809.44
2023-02-11T01:23:49.245Z,102814.75
2023-02-11T01:26:18.048Z,102808.84
2023-02-11T01:28:46.797Z,102813.28
2023-02-11T01:31:15.128Z,102801.22
2023-02-11T01:33:43.650Z,102800.41
2023-02-11T01:36:13.245Z,102795.31
2023-02-11T01:38:44.389Z,102793.63
2023-02-11T01:41:15.633Z,102781.47
2023-02-11T01:43:47.451Z,102789.22
2023-02-11T01:46:27.364Z,102791.81
2023-02-11T01:49:00.980Z,102792.66
2023-02-11T01:51:33.777Z,102789.09
2023-02-11T01:54:27.598Z,102787.31
2023-02-11T01:57:17.096Z,102779.56
2023-02-11T01:59:52.864Z,102777.81
2023-02-11T02:02:27.816Z,102766.50
2023-02-11T02:05:09.108Z,102765.53
2023-02-11T02:07:46.026Z,102757.63
2023-02-11T02:10:22.683Z,102749.72
2023-02-11T02:12:51.065Z,102747.09
2023-02-11T02:15:30.980Z,102747.97
2023-02-11T02:18:13.530Z,102747.25
2023-02-11T02:21:30.726Z,102743.81
2023-02-11T02:24:28.721Z,102740.44
2023-02-11T02:27:40.916Z,102734.22
2023-02-11T02:30:34.913Z,102733.16
2023-02-11T02:33:31.492Z,102732.16
2023-02-11T02:36:13.752Z,102730.41
2023-02-11T02:38:49.509Z,102735.59
2023-02-11T02:41:22.291Z,102740.75
2023-02-11T02:43:52.547Z,102742.50
2023-02-11T02:46:24.307Z,102739.91
2023-02-11T02:48:55.778Z,102723.53
2023-02-11T02:52:13.730Z,102724.28
2023-02-11T02:55:23.178Z,102723.16
2023-02-11T02:58:21.231Z,102712.69
2023-02-11T03:01:01.103Z,102717.84
2023-02-11T03:03:42.818Z,102716.09
2023-02-11T03:06:18.985Z,102727.28
2023-02-11T03:08:53.067Z,102729.78
2023-02-11T03:11:22.972Z,102732.47
2023-02-11T03:13:53.659Z,102735.94
2023-02-11T03:16:26.819Z,102748.84
2023-02-11T03:19:03.106Z,102743.78
2023-02-11T03:21:35.270Z,102744.66
2023-02-11T03:24:09.388Z,102747.25
2023-02-11T03:26:44.084Z,102755.97
2023-02-11T03:29:19.565Z,102747.38
2023-02-11T03:31:57.266Z,102738.75
2023-02-11T03:34:33.274Z,102732.56
2023-02-11T03:37:08.779Z,102728.19
2023-02-11T03:39:41.996Z,102729.78
2023-02-11T03:42:13.868Z,102722.88
2023-02-11T03:44:49.079Z,102722.72
2023-02-11T03:47:22.051Z,102728.03
2023-02-11T03:49:52.819Z,102724.63
2023-02-11T03:52:25.707Z,102713.50
2023-02-11T03:54:59.143Z,102704.13
2023-02-11T03:57:27.495Z,102704.13
2023-02-11T03:59:58.116Z,102706.88
2023-02-11T04:02:30.775Z,102704.41
2023-02-11T04:04:59.913Z,102703.59
2023-02-11T04:07:30.325Z,102695.09
2023-02-11T04:09:59.025Z,102690.81
2023-02-11T04:12:27.585Z,102689.94
2023-02-11T04:14:56.122Z,102683.06
2023-02-11T04:17:24.658Z,102676.94
2023-02-11T04:19:53.188Z,102666.44
2023-02-11T04:22:21.685Z,102649.91
2023-02-11T04:24:51.272Z,102648.03
2023-02-11T04:27:19.785Z,102640.91
2023-02-11T04:29:48.363Z,102650.22
2023-02-11T04:32:17.110Z,102648.31
2023-02-11T04:34:45.608Z,102635.31
2023-02-11T04:37:13.969Z,102636.06
2023-02-11T04:39:43.188Z,102636.81
2023-02-11T04:42:12.795Z,102651.41
2023-02-11T04:44:41.306Z,102657.41
2023-02-11T04:47:09.515Z,102670.16
2023-02-11T04:49:38.141Z,102675.19
2023-02-11T04:52:06.820Z,102678.50
2023-02-11T04:54:35.324Z,102676.66
2023-02-11T04:57:03.987Z,102680.06
2023-02-11T04:59:33.574Z,102683.38
2023-02-11T05:02:02.205Z,102696.28
2023-02-11T05:04:30.849Z,102694.53
2023-02-11T05:06:59.447Z,102695.41
2023-02-11T05:09:27.638Z,102696.38
2023-02-11T05:11:55.867Z,102691.34
2023-02-11T05:14:24.388Z,102700.13
2023-02-11T05:16:54.084Z,102699.41
2023-02-11T05:19:22.581Z,102693.47
2023-02-11T05:22:02.161Z,102691.94
2023-02-11T05:24:31.516Z,102680.88
2023-02-11T05:27:00.072Z,102674.00
2023-02-11T05:29:28.820Z,102664.63
2023-02-11T05:32:00.819Z,102671.56
2023-02-11T05:34:29.568Z,102670.75
2023-02-11T05:36:58.099Z,102662.19
2023-02-11T05:39:26.696Z,102663.16
2023-02-11T05:41:55.259Z,102658.94
2023-02-11T05:44:23.872Z,102664.16
2023-02-11T05:46:52.408Z,102657.38
2023-02-11T05:49:21.994Z,102667.78
2023-02-11T05:51:50.644Z,102671.34
2023-02-11T05:54:19.145Z,102680.06
2023-02-11T05:56:47.630Z,102662.03
2023-02-11T05:59:16.403Z,102662.09
2023-02-11T06:01:45.472Z,102655.97
2023-02-11T06:04:13.991Z,102652.44
2023-02-11T06:06:43.618Z,102660.19
2023-02-11T06:09:12.292Z,102661.88
2023-02-11T06:11:40.798Z,102670.44
2023-02-11T06:14:09.878Z,102672.22
2023-02-11T06:16:38.261Z,102661.00
2023-02-11T06:19:06.947Z,102664.41
2023-02-11T06:21:43.251Z,102668.69
2023-02-11T06:24:13.767Z,102666.00
2023-02-11T06:26:42.308Z,102669.44
2023-02-11T06:29:10.903Z,102670.16
2023-02-11T06:31:39.781Z,102670.91
2023-02-11T06:34:09.265Z,102685.44
2023-02-11T06:36:39.450Z,102681.09
2023-02-11T06:39:08.065Z,102674.22
2023-02-11T06:41:37.727Z,102683.75
2023-02-11T06:44:06.542Z,102676.06
2023-02-11T06:46:35.332Z,102685.66
2023-02-11T06:49:03.832Z,102690.09
2023-02-11T06:51:32.346Z,102685.81
2023-02-11T06:54:00.842Z,102695.41
2023-02-11T06:56:30.292Z,102697.16
2023-02-11T06:58:59.928Z,102686.97
2023-02-11T07:01:29.194Z,102693.94
2023-02-11T07:03:57.816Z,102687.06
2023-02-11T07:06:29.045Z,102682.94
2023-02-11T07:08:57.939Z,102694.22
2023-02-11T07:11:29.843Z,102694.38
2023-02-11T07:14:05.245Z,102699.69
2023-02-11T07:16:34.396Z,102702.47
2023-02-11T07:19:02.643Z,102689.78
2023-02-11T07:21:31.602Z,102688.25
2023-02-11T07:24:00.137Z,102688.41
2023-02-11T07:26:28.922Z,102691.22
2023-02-11T07:28:59.257Z,102681.75
2023-02-11T07:31:29.970Z,102679.31
2023-02-11T07:34:01.048Z,102681.25
2023-02-11T07:36:31.827Z,102683.06
2023-02-11T07:39:01.070Z,102678.94
2023-02-11T07:41:29.379Z,102677.34
2023-02-11T07:43:59.294Z,102671.44
2023-02-11T07:46:28.894Z,102676.81
2023-02-11T07:48:57.411Z,102685.59
2023-02-11T07:51:28.603Z,102691.03
2023-02-11T07:53:59.063Z,102702.63
2023-02-11T07:56:28.337Z,102702.09
2023-02-11T07:58:57.811Z,102701.38
2023-02-11T08:01:28.575Z,102705.06
2023-02-11T08:03:58.162Z,102705.34
2023-02-11T08:06:29.487Z,102705.59
2023-02-11T08:08:58.100Z,102701.69
2023-02-11T08:11:28.984Z,102699.84
2023-02-11T08:13:58.089Z,102688.59
2023-02-11T08:16:30.804Z,102686.06
2023-02-11T08:19:02.128Z,102691.28
2023-02-11T08:21:31.196Z,102689.53
2023-02-11T08:23:59.750Z,102695.53
2023-02-11T08:26:31.718Z,102698.88
2023-02-11T08:29:00.602Z,102686.38
2023-02-11T08:31:34.216Z,102686.72
2023-02-11T08:34:03.054Z,102676.53
2023-02-11T08:36:34.157Z,102680.19
2023-02-11T08:39:18.014Z,102681.34
2023-02-11T08:41:48.685Z,102680.84
2023-02-11T08:44:17.604Z,102691.75
2023-02-11T08:46:47.387Z,102702.56
2023-02-11T08:49:16.281Z,102696.09
2023-02-11T08:51:45.402Z,102696.31
2023-02-11T08:54:14.213Z,102695.50
2023-02-11T08:56:43.013Z,102698.97
2023-02-11T08:59:17.647Z,102705.16
2023-02-11T09:01:47.761Z,102710.66
2023-02-11T09:04:16.281Z,102712.69
2023-02-11T09:06:45.055Z,102713.81
2023-02-11T09:09:16.542Z,102723.72
2023-02-11T09:11:45.620Z,102726.03
2023-02-11T09:14:19.670Z,102716.97
2023-02-11T09:16:50.079Z,102722.72
2023-02-11T09:19:19.282Z,102729.44
2023-02-11T09:21:47.602Z,102721.72
2023-02-11T09:24:16.275Z,102723.38
2023-02-11T09:26:45.174Z,102729.91
2023-02-11T09:29:14.334Z,102717.97
2023-02-11T09:31:43.002Z,102717.09
2023-02-11T09:34:13.327Z,102724.94
2023-02-11T09:36:42.761Z,102728.41
2023-02-11T09:39:15.353Z,102729.19
2023-02-11T09:42:20.179Z,102724.19
2023-02-11T09:44:48.769Z,102717.41
2023-02-11T09:47:29.177Z,102724.41
2023-02-11T09:50:04.613Z,102724.34
2023-02-11T09:52:42.676Z,102715.53
2023-02-11T09:55:22.006Z,102718.06
2023-02-11T09:57:50.744Z,102713.69
2023-02-11T10:00:23.646Z,102716.34
2023-02-11T10:03:24.855Z,102720.59
2023-02-11T10:06:29.586Z,102716.13
2023-02-11T10:09:12.663Z,102728.34
2023-02-11T10:11:50.704Z,102721.72
2023-02-11T10:14:43.695Z,102733.53
2023-02-11T10:17:26.425Z,102733.09
2023-02-11T10:20:17.122Z,102737.78
2023-02-11T10:22:50.338Z,102736.41
2023-02-11T10:25:25.714Z,102732.31
2023-02-11T10:27:57.904Z,102721.88
2023-02-11T10:30:32.555Z,102720.19
2023-02-11T10:33:13.474Z,102719.34
2023-02-11T10:35:43.754Z,102728.22
2023-02-11T10:38:13.646Z,102723.19
2023-02-11T10:40:42.388Z,102724.34
2023-02-11T10:43:14.705Z,102715.78
2023-02-11T10:45:47.252Z,102707.22
2023-02-11T10:48:43.225Z,102721.41
2023-02-11T10:51:20.455Z,102709.56
2023-02-11T10:53:54.401Z,102705.50
2023-02-11T10:56:27.668Z,102711.00
2023-02-11T10:59:00.972Z,102706.94
2023-02-11T11:01:44.587Z,102705.56
2023-02-11T11:04:44.970Z,102708.56
2023-02-11T11:07:24.107Z,102705.25
2023-02-11T11:09:59.577Z,102708.03
2023-02-11T11:12:36.304Z,102702.81
2023-02-11T11:15:20.055Z,102697.56
2023-02-11T11:17:48.959Z,102704.47
2023-02-11T11:20:24.768Z,102707.81
2023-02-11T11:23:08.542Z,102704.31
2023-02-11T11:25:42.626Z,102700.84
2023-02-11T11:28:24.888Z,102707.88
2023-02-11T11:30:55.685Z,102700.00
2023-02-11T11:33:28.640Z,102700.84
2023-02-11T11:36:01.530Z,102692.09
2023-02-11T11:38:33.082Z,102695.50
2023-02-11T11:41:26.927Z,102710.28
2023-02-11T11:44:09.351Z,102707.50
2023-02-11T11:46:42.167Z,102695.16
2023-02-11T11:49:26.720Z,102695.88
2023-02-11T11:52:10.414Z,102701.00
2023-02-11T11:54:41.138Z,102698.19
2023-02-11T11:57:17.412Z,102691.13
2023-02-11T11:59:46.429Z,102689.38
2023-02-11T12:02:53.376Z,102679.84
2023-02-11T12:05:28.836Z,102684.22
2023-02-11T12:08:09.129Z,102680.75
2023-02-11T12:11:10.604Z,102679.88
2023-02-11T12:13:54.490Z,102678.13
2023-02-11T12:16:37.194Z,102679.91
2023-02-11T12:19:56.604Z,102670.31
2023-02-11T12:22:40.034Z,102680.84
2023-02-11T12:25:27.345Z,102678.25
2023-02-11T12:28:12.567Z,102672.16
2023-02-11T12:30:58.115Z,102684.41
2023-02-11T12:33:50.739Z,102675.69
2023-02-11T12:36:32.143Z,102668.66
2023-02-11T12:39:19.045Z,102679.13
2023-02-11T12:42:51.521Z,102673.84
2023-02-11T12:45:36.008Z,102684.28
2023-02-11T12:48:39.577Z,102687.63
2023-02-11T12:51:23.199Z,102681.44
2023-02-11T12:54:19.478Z,102675.19
2023-02-11T12:56:55.353Z,102673.31
2023-02-11T12:59:41.257Z,102671.56
2023-02-11T13:02:22.810Z,102664.53
2023-02-11T13:04:58.275Z,102663.53
2023-02-11T13:07:34.193Z,102667.84
2023-02-11T13:10:26.072Z,102667.75
2023-02-11T13:13:16.550Z,102669.47
2023-02-11T13:15:48.631Z,102662.47
2023-02-11T13:18:48.238Z,102653.72
2023-02-11T13:21:45.099Z,102660.72
2023-02-11T13:24:25.226Z,102659.00
2023-02-11T13:27:06.249Z,102655.44
2023-02-11T13:30:06.199Z,102658.84
2023-02-11T13:33:06.534Z,102658.72
2023-02-11T13:35:36.984Z,102662.09
2023-02-11T13:38:18.559Z,102666.38
2023-02-11T13:40:58.582Z,102649.78
2023-02-11T13:43:29.442Z,102656.69
2023-02-11T13:46:00.920Z,102661.00
2023-02-11T13:48:32.662Z,102662.69
2023-02-11T13:51:04.573Z,102651.31
2023-02-11T13:53:48.886Z,102639.03
2023-02-11T13:56:30.087Z,102634.66
2023-02-11T13:59:01.864Z,102631.19
2023-02-11T14:02:23.669Z,102633.75
2023-02-11T14:05:40.444Z,102638.91
2023-02-11T14:08:42.901Z,102644.13
2023-02-11T14:11:51.146Z,102652.91
2023-02-11T14:14:24.438Z,102651.16
2023-02-11T14:17:30.877Z,102651.25
2023-02-11T14:20:00.363Z,102646.91
2023-02-11T14:22:32.743Z,102642.56
2023-02-11T14:25:03.071Z,102645.16
2023-02-11T14:27:42.042Z,102649.47
2023-02-11T14:30:50.689Z,102652.03
2023-02-11T14:33:50.255Z,102654.59
2023-02-11T14:36:46.405Z,102647.56
2023-02-11T14:39:26.479Z,102652.72
2023-02-11T14:41:55.756Z,102650.94
2023-02-11T14:44:30.934Z,102655.22
2023-02-11T14:46:59.590Z,102657.72
2023-02-11T14:49:32.508Z,102662.91
2023-02-11T14:52:07.901Z,102658.44
2023-02-11T14:54:36.846Z,102664.47
2023-02-11T14:57:12.709Z,102664.41
2023-02-11T14:59:58.855Z,102669.56
2023-02-11T15:02:33.992Z,102667.81
2023-02-11T15:05:26.053Z,102678.22
2023-02-11T15:07:57.336Z,102674.69
2023-02-11T15:10:33.950Z,102678.22
2023-02-11T15:13:04.547Z,102678.22
2023-02-11T15:15:36.468Z,102679.03
2023-02-11T15:18:06.593Z,102674.69
2023-02-11T15:20:35.842Z,102677.28
2023-02-11T15:23:10.025Z,102679.91
2023-02-11T15:25:45.717Z,102676.44
2023-02-11T15:28:24.269Z,102678.16
2023-02-11T15:31:02.583Z,102693.81
2023-02-11T15:33:32.277Z,102693.81
2023-02-11T15:36:03.403Z,102692.91
2023-02-11T15:38:31.792Z,102692.09
2023-02-11T15:41:02.413Z,102693.81
2023-02-11T15:43:46.237Z,102699.03
2023-02-11T15:46:19.890Z,102691.16
2023-02-11T15:48:51.597Z,102696.38
2023-02-11T15:51:25.120Z,102698.97
2023-02-11T15:53:58.409Z,102698.06
2023-02-11T15:56:32.856Z,102701.53
2023-02-11T15:59:12.981Z,102698.00
2023-02-11T16:01:43.174Z,102696.25
2023-02-11T16:04:19.211Z,102696.25
2023-02-11T16:06:48.773Z,102697.06
2023-02-11T16:09:31.257Z,102705.75
2023-02-11T16:12:03.480Z,102701.41
2023-02-11T16:14:36.973Z,102709.22
2023-02-11T16:17:09.671Z,102697.88
2023-02-11T16:19:44.779Z,102698.69
2023-02-11T16:22:18.873Z,102700.41
2023-02-11T16:24:50.982Z,102708.19
2023-02-11T16:27:24.979Z,102717.75
2023-02-11T16:29:53.817Z,102709.00
2023-02-11T16:32:26.334Z,102714.22
2023-02-11T16:34:57.828Z,102707.25
2023-02-11T16:37:26.674Z,102706.38
2023-02-11T16:39:55.278Z,102709.88
2023-02-11T16:42:23.588Z,102717.63
2023-02-11T16:44:51.862Z,102716.75
2023-02-11T16:47:27.504Z,102724.53
2023-02-11T16:49:57.211Z,102721.91
2023-02-11T16:52:26.461Z,102708.88
2023-02-11T16:54:55.093Z,102714.06
2023-02-11T16:57:28.820Z,102716.63
2023-02-11T16:59:58.996Z,102714.88
2023-02-11T17:02:31.400Z,102726.13
2023-02-11T17:05:02.751Z,102726.03
2023-02-11T17:07:31.461Z,102732.94
2023-02-11T17:10:00.307Z,102725.97
2023-02-11T17:12:29.031Z,102729.41
2023-02-11T17:14:57.588Z,102724.13
2023-02-11T17:17:26.121Z,102727.59
2023-02-11T17:19:55.642Z,102730.13
2023-02-11T17:22:24.229Z,102722.22
2023-02-11T17:24:52.974Z,102722.16
2023-02-11T17:27:21.199Z,102730.81
2023-02-11T17:29:49.751Z,102721.16
2023-02-11T17:32:18.396Z,102730.66
2023-02-11T17:34:47.144Z,102734.94
2023-02-11T17:37:16.862Z,102735.78
2023-02-11T17:39:45.046Z,102741.88
2023-02-11T17:42:14.737Z,102741.88
2023-02-11T17:44:44.318Z,102738.41
2023-02-11T17:47:12.703Z,102745.38
2023-02-11T17:49:41.300Z,102741.03
2023-02-11T17:52:10.148Z,102737.53
2023-02-11T17:54:39.811Z,102741.88
2023-02-11T17:57:08.328Z,102753.19
2023-02-11T17:59:36.851Z,102751.41
2023-02-11T18:02:05.809Z,102754.84
2023-02-11T18:04:34.404Z,102760.06
2023-02-11T18:07:02.743Z,102760.94
2023-02-11T18:09:31.027Z,102760.94
2023-02-11T18:12:00.590Z,102762.75
2023-02-11T18:14:29.130Z,102773.19
2023-02-11T18:16:57.692Z,102767.03
2023-02-11T18:19:30.415Z,102763.63
2023-02-11T18:22:00.961Z,102774.84
2023-02-11T18:24:29.431Z,102763.47
2023-02-11T18:26:57.935Z,102761.69
2023-02-11T18:29:27.825Z,102768.59
2023-02-11T18:31:57.681Z,102772.03
2023-02-11T18:34:27.132Z,102784.19
2023-02-11T18:36:55.702Z,102781.56
2023-02-11T18:39:26.431Z,102776.28
2023-02-11T18:41:56.799Z,102781.50
2023-02-11T18:44:26.785Z,102785.84
2023-02-11T18:46:55.140Z,102789.31
2023-02-11T18:49:23.409Z,102787.53
2023-02-11T18:51:52.180Z,102784.03
2023-02-11T18:54:20.725Z,102785.78
2023-02-11T18:56:49.003Z,102788.38
2023-02-11T18:59:17.627Z,102780.56
2023-02-11T19:01:47.436Z,102773.59
2023-02-11T19:04:19.716Z,102767.53
2023-02-11T19:06:49.880Z,102761.44
2023-02-11T19:09:21.142Z,102763.25
2023-02-11T19:11:54.017Z,102762.31
2023-02-11T19:14:24.872Z,102764.13
2023-02-11T19:16:59.041Z,102764.06
2023-02-11T19:19:31.119Z,102771.88
2023-02-11T19:22:01.046Z,102765.78
2023-02-11T19:24:30.618Z,102762.31
2023-02-11T19:27:01.262Z,102760.56
2023-02-11T19:29:32.014Z,102771.88
2023-02-11T19:32:02.459Z,102777.16
2023-02-11T19:34:30.824Z,102775.41
2023-02-11T19:37:01.562Z,102787.59
2023-02-11T19:39:30.227Z,102789.41
2023-02-11T19:41:58.572Z,102785.00
2023-02-11T19:44:27.198Z,102783.25
2023-02-11T19:46:55.388Z,102780.63
2023-02-11T19:49:26.290Z,102785.84
2023-02-11T19:51:57.351Z,102790.19
2023-02-11T19:54:27.286Z,102788.41
2023-02-11T19:56:55.788Z,102785.78
2023-02-11T19:59:24.328Z,102780.56
2023-02-11T20:01:53.752Z,102785.72
2023-02-11T20:04:25.016Z,102784.84
2023-02-11T20:06:53.618Z,102790.06
2023-02-11T20:09:22.765Z,102788.31
2023-02-11T20:11:51.386Z,102792.59
2023-02-11T20:14:19.677Z,102797.81
2023-02-11T20:16:49.967Z,102808.25
2023-02-11T20:19:22.366Z,102803.81
2023-02-11T20:21:55.595Z,102805.56
2023-02-11T20:24:26.720Z,102813.28
2023-02-11T20:26:56.427Z,102802.78
2023-02-11T20:29:25.664Z,102795.72
2023-02-11T20:31:54.559Z,102796.56
2023-02-11T20:34:23.210Z,102794.78
2023-02-11T20:36:53.058Z,102800.88
2023-02-11T20:39:22.919Z,102806.97
2023-02-11T20:41:52.302Z,102815.66
2023-02-11T20:44:22.579Z,102813.94
2023-02-11T20:46:52.013Z,102813.94
2023-02-11T20:49:23.650Z,102810.44
2023-02-11T20:51:53.789Z,102804.38
2023-02-11T20:54:24.158Z,102807.84
2023-02-11T20:56:53.870Z,102807.84
2023-02-11T20:59:23.175Z,102803.50
2023-02-11T21:01:55.272Z,102800.00
2023-02-11T21:04:26.791Z,102790.44
2023-02-11T21:06:58.655Z,102798.19
2023-02-11T21:09:30.561Z,102802.53
2023-02-11T21:11:59.236Z,102804.22
2023-02-11T21:14:29.865Z,102800.72
2023-02-11T21:16:58.917Z,102794.63
2023-02-11T21:19:27.404Z,102803.22
2023-02-11T21:22:00.466Z,102796.19
2023-02-11T21:24:30.729Z,102790.09
2023-02-11T21:26:59.404Z,102790.09
2023-02-11T21:29:29.273Z,102795.31
2023-02-11T21:31:57.948Z,102798.75
2023-02-11T21:34:26.168Z,102795.31
2023-02-11T21:36:55.993Z,102803.16
2023-02-11T21:39:24.578Z,102800.53
2023-02-11T21:41:53.266Z,102794.41
2023-02-11T21:44:21.567Z,102802.28
2023-02-11T21:46:50.210Z,102805.75
2023-02-11T21:49:19.633Z,102805.75
2023-02-11T21:51:48.132Z,102805.75
2023-02-11T21:54:18.706Z,102824.00
2023-02-11T21:56:47.188Z,102830.09
2023-02-11T21:59:16.386Z,102831.81
2023-02-11T22:01:47.047Z,102830.97
2023-02-11T22:04:15.319Z,102836.22
2023-02-11T22:06:44.759Z,102831.00
2023-02-11T22:09:13.039Z,102835.31
2023-02-11T22:11:42.596Z,102840.53
2023-02-11T22:14:11.108Z,102847.47
2023-02-11T22:16:39.937Z,102861.22
2023-02-11T22:19:08.606Z,102842.81
2023-02-11T22:21:37.421Z,102841.91
2023-02-11T22:24:06.549Z,102845.25
2023-02-11T22:26:35.092Z,102845.16
2023-02-11T22:29:04.783Z,102843.41
2023-02-11T22:31:35.530Z,102841.59
2023-02-11T22:34:05.750Z,102831.19
2023-02-11T22:36:36.791Z,102828.56
2023-02-11T22:39:08.776Z,102834.63
2023-02-11T22:41:38.284Z,102833.69
2023-02-11T22:44:08.302Z,102833.59
2023-02-11T22:46:36.649Z,102830.00
2023-02-11T22:49:05.575Z,102828.19
2023-02-11T22:51:34.098Z,102828.06
2023-02-11T22:54:03.871Z,102826.22
2023-02-11T22:56:34.779Z,102820.03
2023-02-11T22:59:06.192Z,102815.50
2023-02-11T23:01:36.498Z,102823.19
2023-02-11T23:04:07.910Z,102829.13
2023-02-11T23:06:36.738Z,102835.19
2023-02-11T23:09:05.666Z,102827.34
2023-02-11T23:11:34.470Z,102835.09
2023-02-11T23:14:03.799Z,102834.25
2023-02-11T23:16:35.748Z,102841.25
2023-02-11T23:19:07.232Z,102845.59
2023-02-11T23:21:37.997Z,102843.00
2023-02-11T23:24:11.566Z,102835.19
2023-02-11T23:26:42.545Z,102840.41
2023-02-11T23:29:11.427Z,102843.00
2023-02-11T23:31:45.878Z,102850.81
2023-02-11T23:34:17.108Z,102849.16
2023-02-11T23:36:45.634Z,102847.47
2023-02-11T23:39:15.548Z,102860.53
2023-02-11T23:41:44.743Z,102858.00
2023-02-11T23:44:13.311Z,102860.63
2023-02-11T23:46:42.900Z,102855.50
2023-02-11T23:49:11.466Z,102856.41
2023-02-11T23:51:40.081Z,102859.97
2023-02-11T23:54:08.583Z,102861.72
2023-02-11T23:56:39.994Z,102860.06
2023-02-11T23:59:08.687Z,102860.06
